Woodstock, IL

9:19 PM CST on December 10, 2016 (GMT -0600)
Midtown | | Change Station
Active Advisory: Winter Storm Warning

Elev 912 ft 42.32 °N, 88.45 °W | Updated 12 minutes ago

Snow
Snow
20.5 °F
Feels Like 20 °F
N
0.0
Wind Variable Wind from NW
Gusts 3.0 mph

Today
High -- | Low -- °F
--% Chance of Precip.
Yesterday
High -- | Low -- °F
Precip. -- in
Pressure 30.30 in
Visibility 2.0 miles
Clouds
Windchill 20 °F
Dew Point 19 °F
Humidity 92%
Rainfall 0.00 in
Snow Depth Not available.
7:12 AM 4:21 PM
Waxing Gibbous, 88% visible
METAR KBUU 110255Z AUTO 13003KT 2SM -SN M04/M05 A3030 RMK AO2 SKY OBSCURED T10421050
Pressure 30.30 in
Visibility 2.0 miles
Clouds
Windchill 20 °F
Dew Point 19 °F
Humidity 92%
Rainfall 0.00 in
Snow Depth Not available.
7:12 AM 4:21 PM
Waxing Gibbous, 88% visible
METAR KBUU 110255Z AUTO 13003KT 2SM -SN M04/M05 A3030 RMK AO2 SKY OBSCURED T10421050

10-Day Weather Forecast

Almanac

Astronomy

Dec. 10, 2016 Rise Set
Actual Time
Civil Twilight
Nautical Twilight
Astronomical Twilight
Moon
Length of Visible Light
Length of Day
Tomorrow will be .
, % of the Moon is Illuminated

Today's Extremes

State Highs State Lows

Community

WunderPhotos

Upload Photos

1,956,699 photos uploaded!

WunderBlog® & News

Nearby

Air Quality

  Air Quality AQ Index Pollutant
Not available.

Snow Depth

Station Depth Elevation

Earthquake Activity

City Distance Mag. Time & Date
Minimum magnitude displayed is 2.5.

Coastal Water Temperatures

Place Temperature

Stations

Nearby Weather Stations

Station Location Temp. Windchill Dew Point Humidity Wind Precip. Elev Updated Type
                   

Watches & Warnings

Winter Storm Warning
Issued: 3:39 PM CST Dec. 10, 2016 – National Weather Service

... Winter Storm Warning remains in effect until midnight CST
Sunday night...

* timing... snow... becoming heavy at times... will continue tonight
through Sunday before diminishing Sunday evening.

* Snow accumulations... the heaviest totals are expected north of
Interstate 80 where storm totals of 7 to 12 inches are likely
by Sunday evening. Snow amounts should tapper off south of
Interstate 80 into the 3 to 6 inch range across far southern
sections of the warning area... where the snow could mix with
rain later Sunday.

* Visibilities... look for reduced visibilities during the
heavier snowfall... likely below a mile at times.

* Impacts... plan on difficult driving conditions.

Precautionary/preparedness actions...

A Winter Storm Warning for heavy snow means severe winter weather
conditions are expected or occurring. Significant amounts of
snow are forecast that will make travel dangerous. Only travel in
an emergency. If you must travel... keep an extra flashlight...
food... and water in your vehicle in case of an emergency.